Página principal
METAR-TAF:

METAR-TAF

Aeroportos :

Aeroporto Internacional de Ivato

Antananarivo, Madagáscar

latitude: 18-48S, longitude: 047-29E, altura: 1279 m

Observação actual do tempo

O boletim foi feito há 34 minutos, às 15:00 UTC
Vento 7 kt de este
Temperatura 16°C
Humidade 63%
Pressão 1027 hPa
Visibilidade 10 km ou mais
Poucas nuvensa uma altura de 2300 ft

METAR: FMMI 161500Z 09007KT 9999 FEW023 16/09 Q1027 NOSIG

Hora: 18:34 (15:34 UTC)

Previsão

O boletim foi feito há 4 horas e 34 minutos, às 11:00 UTC
Previsão válida de 16 às 12 UTC a 17 às 18 UTC
Vento 12 kt de este
Visibilidade 10 km ou mais
Poucas nuvensa uma altura de 2300 ft
Tornando-se
de 16 às 18 UTC a 16 às 21 UTC
Vento 5 kt de su-sudeste
Tornando-se
de 17 às 06 UTC a 17 às 09 UTC
Vento 10 kt de este

TAF: FMMI 161100Z 1612/1718 10012KT 9999 FEW023 BECMG 1618/1621 16005KT BECMG 1706/1709 10010KT

Observações e previsões do tempo de mais de 4000 aeroportos (mensagens METAR e TAF).

As estações disponíveis são os pontos amarelos e vermelhos sobre o mapa.

Mova o rato sobre o mapa para ver o nome da estação.

Depois clique no ponto para visualizar as observações e previsões meteorológicas.

Para alterar o mapa : clique nos botões verdes com uma cruz preta para aumentar o zoom; no botão verde com uma pitada de zoom; ou nas setas verdes para mapas adjacentes.


METAR-TAF: